sensor_id;sensor_type;location;lat;lon;timestamp;pressure;altitude;pressure_sealevel;temperature;humidity
25944;BME280;13742;49.306;8.636;2023-12-28T00:00:03;100618.72;;;5.91;88.31
25944;BME280;13742;49.306;8.636;2023-12-28T00:01:02;100616.46;;;5.91;88.66
25944;BME280;13742;49.306;8.636;2023-12-28T00:02:02;100621.45;;;5.92;88.58
25944;BME280;13742;49.306;8.636;2023-12-28T00:03:03;100618.05;;;5.91;88.69
25944;BME280;13742;49.306;8.636;2023-12-28T00:04:02;100621.90;;;5.90;88.66
25944;BME280;13742;49.306;8.636;2023-12-28T00:05:04;100620.48;;;5.89;88.65
25944;BME280;13742;49.306;8.636;2023-12-28T00:06:03;100615.28;;;5.89;88.76
25944;BME280;13742;49.306;8.636;2023-12-28T00:07:02;100616.29;;;5.88;88.59
25944;BME280;13742;49.306;8.636;2023-12-28T00:08:02;100620.94;;;5.85;88.39
25944;BME280;13742;49.306;8.636;2023-12-28T00:09:02;100616.91;;;5.84;88.40
25944;BME280;13742;49.306;8.636;2023-12-28T00:10:03;100612.77;;;5.82;88.43
25944;BME280;13742;49.306;8.636;2023-12-28T00:11:02;100609.78;;;5.82;88.56
25944;BME280;13742;49.306;8.636;2023-12-28T00:12:03;100603.02;;;5.80;88.40
25944;BME280;13742;49.306;8.636;2023-12-28T00:13:03;100598.08;;;5.78;88.33
25944;BME280;13742;49.306;8.636;2023-12-28T00:14:02;100596.32;;;5.76;88.49
25944;BME280;13742;49.306;8.636;2023-12-28T00:15:02;100589.46;;;5.73;88.47
25944;BME280;13742;49.306;8.636;2023-12-28T00:16:02;100591.23;;;5.72;88.42
25944;BME280;13742;49.306;8.636;2023-12-28T00:17:02;100596.96;;;5.71;88.55
25944;BME280;13742;49.306;8.636;2023-12-28T00:18:03;100598.97;;;5.71;88.68
25944;BME280;13742;49.306;8.636;2023-12-28T00:19:03;100600.58;;;5.69;88.65
25944;BME280;13742;49.306;8.636;2023-12-28T00:20:03;100600.11;;;5.67;88.64
25944;BME280;13742;49.306;8.636;2023-12-28T00:21:02;100605.55;;;5.68;88.77
25944;BME280;13742;49.306;8.636;2023-12-28T00:22:02;100606.05;;;5.67;88.90
25944;BME280;13742;49.306;8.636;2023-12-28T00:23:03;100613.72;;;5.66;89.04
25944;BME280;13742;49.306;8.636;2023-12-28T00:24:03;100615.78;;;5.68;89.12
25944;BME280;13742;49.306;8.636;2023-12-28T00:25:03;100615.94;;;5.68;89.09
25944;BME280;13742;49.306;8.636;2023-12-28T00:26:02;100621.28;;;5.68;88.82
25944;BME280;13742;49.306;8.636;2023-12-28T00:27:02;100618.70;;;5.65;88.66
25944;BME280;13742;49.306;8.636;2023-12-28T00:28:03;100617.39;;;5.65;88.86
25944;BME280;13742;49.306;8.636;2023-12-28T00:29:02;100613.78;;;5.64;88.70
25944;BME280;13742;49.306;8.636;2023-12-28T00:30:03;100620.45;;;5.62;88.66
25944;BME280;13742;49.306;8.636;2023-12-28T00:31:02;100625.00;;;5.64;89.09
25944;BME280;13742;49.306;8.636;2023-12-28T00:32:02;100622.52;;;5.65;89.04
25944;BME280;13742;49.306;8.636;2023-12-28T00:33:02;100626.33;;;5.65;88.99
25944;BME280;13742;49.306;8.636;2023-12-28T00:34:02;100625.27;;;5.65;88.87
25944;BME280;13742;49.306;8.636;2023-12-28T00:35:04;100622.85;;;5.63;88.80
25944;BME280;13742;49.306;8.636;2023-12-28T00:36:02;100613.44;;;5.63;88.92
25944;BME280;13742;49.306;8.636;2023-12-28T00:37:02;100614.84;;;5.62;88.75
25944;BME280;13742;49.306;8.636;2023-12-28T00:38:02;100615.41;;;5.60;88.69
25944;BME280;13742;49.306;8.636;2023-12-28T00:39:03;100615.09;;;5.60;88.79
25944;BME280;13742;49.306;8.636;2023-12-28T00:40:03;100624.04;;;5.61;88.85
25944;BME280;13742;49.306;8.636;2023-12-28T00:41:02;100623.98;;;5.59;88.90
25944;BME280;13742;49.306;8.636;2023-12-28T00:42:03;100627.13;;;5.60;88.91
25944;BME280;13742;49.306;8.636;2023-12-28T00:43:02;100626.56;;;5.60;88.90
25944;BME280;13742;49.306;8.636;2023-12-28T00:44:02;100628.45;;;5.59;88.89
25944;BME280;13742;49.306;8.636;2023-12-28T00:45:03;100631.45;;;5.59;88.71
25944;BME280;13742;49.306;8.636;2023-12-28T00:46:02;100632.70;;;5.60;88.84
25944;BME280;13742;49.306;8.636;2023-12-28T00:47:02;100627.25;;;5.58;88.79
25944;BME280;13742;49.306;8.636;2023-12-28T00:48:03;100620.03;;;5.57;88.56
25944;BME280;13742;49.306;8.636;2023-12-28T00:49:02;100619.98;;;5.57;88.59
25944;BME280;13742;49.306;8.636;2023-12-28T00:50:02;100619.75;;;5.56;88.60
25944;BME280;13742;49.306;8.636;2023-12-28T00:51:02;100620.52;;;5.55;88.61
25944;BME280;13742;49.306;8.636;2023-12-28T00:52:02;100616.33;;;5.53;88.71
25944;BME280;13742;49.306;8.636;2023-12-28T00:53:02;100618.52;;;5.52;88.68
25944;BME280;13742;49.306;8.636;2023-12-28T00:54:02;100616.28;;;5.52;88.70
25944;BME280;13742;49.306;8.636;2023-12-28T00:55:02;100622.01;;;5.52;88.88
25944;BME280;13742;49.306;8.636;2023-12-28T00:56:02;100623.11;;;5.52;88.95
25944;BME280;13742;49.306;8.636;2023-12-28T00:57:03;100621.09;;;5.51;88.78
25944;BME280;13742;49.306;8.636;2023-12-28T00:58:02;100616.22;;;5.49;88.56
25944;BME280;13742;49.306;8.636;2023-12-28T00:59:02;100622.45;;;5.48;88.65
25944;BME280;13742;49.306;8.636;2023-12-28T01:00:03;100618.83;;;5.48;88.72
25944;BME280;13742;49.306;8.636;2023-12-28T01:01:02;100617.27;;;5.46;88.59
25944;BME280;13742;49.306;8.636;2023-12-28T01:02:02;100616.25;;;5.43;88.44
25944;BME280;13742;49.306;8.636;2023-12-28T01:03:03;100616.32;;;5.42;88.70
25944;BME280;13742;49.306;8.636;2023-12-28T01:04:02;100613.81;;;5.41;88.67
25944;BME280;13742;49.306;8.636;2023-12-28T01:05:04;100614.05;;;5.41;88.95
25944;BME280;13742;49.306;8.636;2023-12-28T01:06:03;100614.31;;;5.40;88.86
25944;BME280;13742;49.306;8.636;2023-12-28T01:07:04;100614.91;;;5.39;88.70
25944;BME280;13742;49.306;8.636;2023-12-28T01:08:03;100612.91;;;5.39;88.63
25944;BME280;13742;49.306;8.636;2023-12-28T01:09:02;100611.64;;;5.39;88.69
25944;BME280;13742;49.306;8.636;2023-12-28T01:10:02;100616.31;;;5.44;88.73
25944;BME280;13742;49.306;8.636;2023-12-28T01:11:02;100616.16;;;5.42;88.32
25944;BME280;13742;49.306;8.636;2023-12-28T01:12:02;100616.91;;;5.43;88.42
25944;BME280;13742;49.306;8.636;2023-12-28T01:13:02;100612.02;;;5.42;88.41
25944;BME280;13742;49.306;8.636;2023-12-28T01:14:03;100612.81;;;5.43;88.23
25944;BME280;13742;49.306;8.636;2023-12-28T01:15:02;100610.16;;;5.43;88.14
25944;BME280;13742;49.306;8.636;2023-12-28T01:16:03;100607.79;;;5.43;88.07
25944;BME280;13742;49.306;8.636;2023-12-28T01:17:02;100608.98;;;5.43;87.92
25944;BME280;13742;49.306;8.636;2023-12-28T01:18:02;100607.63;;;5.43;88.02
25944;BME280;13742;49.306;8.636;2023-12-28T01:19:03;100610.47;;;5.44;88.02
25944;BME280;13742;49.306;8.636;2023-12-28T01:20:04;100608.40;;;5.43;87.76
25944;BME280;13742;49.306;8.636;2023-12-28T01:21:02;100608.71;;;5.44;87.64
25944;BME280;13742;49.306;8.636;2023-12-28T01:22:02;100605.50;;;5.39;87.09
25944;BME280;13742;49.306;8.636;2023-12-28T01:23:02;100606.20;;;5.38;87.18
25944;BME280;13742;49.306;8.636;2023-12-28T01:24:02;100611.55;;;5.39;87.22
25944;BME280;13742;49.306;8.636;2023-12-28T01:25:02;100617.97;;;5.41;87.04
25944;BME280;13742;49.306;8.636;2023-12-28T01:26:02;100621.92;;;5.38;86.91
25944;BME280;13742;49.306;8.636;2023-12-28T01:27:02;100622.34;;;5.38;87.21
25944;BME280;13742;49.306;8.636;2023-12-28T01:28:02;100626.48;;;5.40;87.10
25944;BME280;13742;49.306;8.636;2023-12-28T01:29:03;100619.28;;;5.39;87.22
25944;BME280;13742;49.306;8.636;2023-12-28T01:30:02;100618.86;;;5.38;87.31
25944;BME280;13742;49.306;8.636;2023-12-28T01:31:02;100625.19;;;5.38;87.48
25944;BME280;13742;49.306;8.636;2023-12-28T01:32:02;100627.36;;;5.39;87.37
25944;BME280;13742;49.306;8.636;2023-12-28T01:33:02;100630.86;;;5.38;87.32
25944;BME280;13742;49.306;8.636;2023-12-28T01:34:02;100632.03;;;5.36;87.40
25944;BME280;13742;49.306;8.636;2023-12-28T01:35:02;100630.72;;;5.36;87.53
25944;BME280;13742;49.306;8.636;2023-12-28T01:36:02;100633.27;;;5.36;87.56
25944;BME280;13742;49.306;8.636;2023-12-28T01:37:02;100634.11;;;5.37;87.58
25944;BME280;13742;49.306;8.636;2023-12-28T01:38:03;100638.58;;;5.36;87.62
25944;BME280;13742;49.306;8.636;2023-12-28T01:39:03;100645.07;;;5.35;87.62
25944;BME280;13742;49.306;8.636;2023-12-28T01:40:03;100646.59;;;5.35;87.63
25944;BME280;13742;49.306;8.636;2023-12-28T01:41:02;100645.45;;;5.35;87.65
25944;BME280;13742;49.306;8.636;2023-12-28T01:42:04;100651.42;;;5.35;87.59
25944;BME280;13742;49.306;8.636;2023-12-28T01:43:02;100648.47;;;5.33;87.66
25944;BME280;13742;49.306;8.636;2023-12-28T01:44:02;100652.57;;;5.32;87.65
25944;BME280;13742;49.306;8.636;2023-12-28T01:45:02;100649.41;;;5.31;87.42
25944;BME280;13742;49.306;8.636;2023-12-28T01:46:02;100651.94;;;5.31;87.48
25944;BME280;13742;49.306;8.636;2023-12-28T01:47:02;100652.09;;;5.30;87.54
25944;BME280;13742;49.306;8.636;2023-12-28T01:48:02;100652.75;;;5.29;87.42
25944;BME280;13742;49.306;8.636;2023-12-28T01:49:03;100651.07;;;5.27;87.61
25944;BME280;13742;49.306;8.636;2023-12-28T01:50:02;100652.20;;;5.28;87.50
25944;BME280;13742;49.306;8.636;2023-12-28T01:51:02;100651.13;;;5.27;87.65
25944;BME280;13742;49.306;8.636;2023-12-28T01:52:02;100652.59;;;5.27;87.72
25944;BME280;13742;49.306;8.636;2023-12-28T01:53:02;100652.24;;;5.26;87.71
25944;BME280;13742;49.306;8.636;2023-12-28T01:54:02;100653.73;;;5.25;87.51
25944;BME280;13742;49.306;8.636;2023-12-28T01:55:02;100655.30;;;5.25;87.66
25944;BME280;13742;49.306;8.636;2023-12-28T01:56:03;100654.97;;;5.25;87.78
25944;BME280;13742;49.306;8.636;2023-12-28T01:57:02;100650.02;;;5.25;87.86
25944;BME280;13742;49.306;8.636;2023-12-28T01:58:02;100645.59;;;5.23;87.54
25944;BME280;13742;49.306;8.636;2023-12-28T01:59:02;100642.02;;;5.21;87.65
25944;BME280;13742;49.306;8.636;2023-12-28T02:00:04;100643.09;;;5.21;87.71
25944;BME280;13742;49.306;8.636;2023-12-28T02:01:02;100640.66;;;5.20;87.79
25944;BME280;13742;49.306;8.636;2023-12-28T02:02:03;100645.56;;;5.20;87.85
25944;BME280;13742;49.306;8.636;2023-12-28T02:03:02;100646.16;;;5.21;88.27
25944;BME280;13742;49.306;8.636;2023-12-28T02:04:02;100647.95;;;5.22;88.19
25944;BME280;13742;49.306;8.636;2023-12-28T02:05:02;100648.02;;;5.22;88.31
25944;BME280;13742;49.306;8.636;2023-12-28T02:06:02;100651.98;;;5.25;88.35
25944;BME280;13742;49.306;8.636;2023-12-28T02:07:03;100650.98;;;5.26;88.43
25944;BME280;13742;49.306;8.636;2023-12-28T02:08:02;100644.41;;;5.27;88.30
25944;BME280;13742;49.306;8.636;2023-12-28T02:09:02;100652.22;;;5.30;88.13
25944;BME280;13742;49.306;8.636;2023-12-28T02:10:02;100651.16;;;5.31;88.15
25944;BME280;13742;49.306;8.636;2023-12-28T02:11:02;100648.47;;;5.33;88.01
25944;BME280;13742;49.306;8.636;2023-12-28T02:12:02;100647.42;;;5.34;87.85
25944;BME280;13742;49.306;8.636;2023-12-28T02:13:02;100650.19;;;5.35;87.76
25944;BME280;13742;49.306;8.636;2023-12-28T02:14:02;100654.81;;;5.39;87.85
25944;BME280;13742;49.306;8.636;2023-12-28T02:15:02;100661.56;;;5.42;87.19
25944;BME280;13742;49.306;8.636;2023-12-28T02:16:06;100659.10;;;5.42;87.23
25944;BME280;13742;49.306;8.636;2023-12-28T02:17:04;100655.60;;;5.43;87.15
25944;BME280;13742;49.306;8.636;2023-12-28T02:18:05;100655.39;;;5.45;87.22
25944;BME280;13742;49.306;8.636;2023-12-28T02:19:17;100655.58;;;5.47;87.23
25944;BME280;13742;49.306;8.636;2023-12-28T02:20:06;100654.53;;;5.48;87.14
25944;BME280;13742;49.306;8.636;2023-12-28T02:21:02;100654.98;;;5.49;87.16
25944;BME280;13742;49.306;8.636;2023-12-28T02:22:02;100655.95;;;5.50;86.90
25944;BME280;13742;49.306;8.636;2023-12-28T02:23:02;100662.52;;;5.53;86.58
25944;BME280;13742;49.306;8.636;2023-12-28T02:24:02;100668.40;;;5.54;86.37
25944;BME280;13742;49.306;8.636;2023-12-28T02:26:02;100666.25;;;5.57;86.04
25944;BME280;13742;49.306;8.636;2023-12-28T02:27:02;100666.83;;;5.59;86.05
25944;BME280;13742;49.306;8.636;2023-12-28T02:28:02;100671.54;;;5.61;86.00
25944;BME280;13742;49.306;8.636;2023-12-28T02:29:02;100667.66;;;5.60;85.91
25944;BME280;13742;49.306;8.636;2023-12-28T02:30:02;100664.09;;;5.61;85.86
25944;BME280;13742;49.306;8.636;2023-12-28T02:31:02;100666.60;;;5.62;85.88
25944;BME280;13742;49.306;8.636;2023-12-28T02:32:03;100666.94;;;5.64;86.04
25944;BME280;13742;49.306;8.636;2023-12-28T02:34:06;100664.16;;;5.66;85.80
25944;BME280;13742;49.306;8.636;2023-12-28T02:35:06;100675.66;;;5.68;85.67
25944;BME280;13742;49.306;8.636;2023-12-28T02:36:04;100680.16;;;5.68;85.73
25944;BME280;13742;49.306;8.636;2023-12-28T02:37:02;100669.33;;;5.69;85.33
25944;BME280;13742;49.306;8.636;2023-12-28T02:38:04;100662.72;;;5.70;85.53
25944;BME280;13742;49.306;8.636;2023-12-28T02:39:03;100658.51;;;5.71;85.49
25944;BME280;13742;49.306;8.636;2023-12-28T02:40:02;100663.25;;;5.72;85.66
25944;BME280;13742;49.306;8.636;2023-12-28T02:41:02;100664.13;;;5.73;85.77
25944;BME280;13742;49.306;8.636;2023-12-28T02:42:02;100665.19;;;5.75;85.61
25944;BME280;13742;49.306;8.636;2023-12-28T02:43:03;100659.25;;;5.75;85.65
25944;BME280;13742;49.306;8.636;2023-12-28T02:44:02;100659.73;;;5.77;85.72
25944;BME280;13742;49.306;8.636;2023-12-28T02:45:02;100661.16;;;5.78;85.82
25944;BME280;13742;49.306;8.636;2023-12-28T02:46:02;100667.38;;;5.80;85.62
25944;BME280;13742;49.306;8.636;2023-12-28T02:47:02;100664.72;;;5.81;85.73
25944;BME280;13742;49.306;8.636;2023-12-28T02:48:02;100663.36;;;5.82;85.60
25944;BME280;13742;49.306;8.636;2023-12-28T02:49:02;100661.71;;;5.82;85.23
25944;BME280;13742;49.306;8.636;2023-12-28T02:50:02;100655.80;;;5.83;84.91
25944;BME280;13742;49.306;8.636;2023-12-28T02:51:02;100657.95;;;5.84;84.76
25944;BME280;13742;49.306;8.636;2023-12-28T02:52:02;100659.83;;;5.84;84.51
25944;BME280;13742;49.306;8.636;2023-12-28T02:53:02;100665.02;;;5.85;84.80
25944;BME280;13742;49.306;8.636;2023-12-28T02:54:02;100659.19;;;5.86;84.92
25944;BME280;13742;49.306;8.636;2023-12-28T02:55:02;100656.27;;;5.86;84.70
25944;BME280;13742;49.306;8.636;2023-12-28T02:56:02;100657.48;;;5.87;84.89
25944;BME280;13742;49.306;8.636;2023-12-28T02:57:02;100655.33;;;5.88;84.46
25944;BME280;13742;49.306;8.636;2023-12-28T02:58:02;100652.75;;;5.89;84.28
25944;BME280;13742;49.306;8.636;2023-12-28T02:59:02;100655.69;;;5.90;83.93
25944;BME280;13742;49.306;8.636;2023-12-28T03:00:04;100656.82;;;5.91;83.96
25944;BME280;13742;49.306;8.636;2023-12-28T03:01:02;100653.83;;;5.91;83.70
25944;BME280;13742;49.306;8.636;2023-12-28T03:02:02;100654.70;;;5.92;83.84
25944;BME280;13742;49.306;8.636;2023-12-28T03:03:02;100659.27;;;5.93;83.56
25944;BME280;13742;49.306;8.636;2023-12-28T03:04:02;100660.69;;;5.94;83.56
25944;BME280;13742;49.306;8.636;2023-12-28T03:05:03;100662.06;;;5.95;83.81
25944;BME280;13742;49.306;8.636;2023-12-28T03:06:02;100660.22;;;5.97;83.46
25944;BME280;13742;49.306;8.636;2023-12-28T03:07:02;100660.79;;;5.99;83.27
25944;BME280;13742;49.306;8.636;2023-12-28T03:08:02;100661.72;;;6.00;83.03
25944;BME280;13742;49.306;8.636;2023-12-28T03:09:02;100664.06;;;6.01;83.07
25944;BME280;13742;49.306;8.636;2023-12-28T03:10:03;100658.05;;;6.01;83.26
25944;BME280;13742;49.306;8.636;2023-12-28T03:11:02;100661.05;;;6.02;83.14
25944;BME280;13742;49.306;8.636;2023-12-28T03:12:02;100665.31;;;6.03;83.43
25944;BME280;13742;49.306;8.636;2023-12-28T03:13:02;100662.59;;;6.06;83.49
25944;BME280;13742;49.306;8.636;2023-12-28T03:14:02;100666.09;;;6.06;83.59
25944;BME280;13742;49.306;8.636;2023-12-28T03:15:03;100665.03;;;6.07;83.54
25944;BME280;13742;49.306;8.636;2023-12-28T03:16:02;100661.61;;;6.08;83.42
25944;BME280;13742;49.306;8.636;2023-12-28T03:17:02;100657.18;;;6.08;83.65
25944;BME280;13742;49.306;8.636;2023-12-28T03:18:02;100651.98;;;6.08;83.58
25944;BME280;13742;49.306;8.636;2023-12-28T03:19:02;100659.02;;;6.10;83.41
25944;BME280;13742;49.306;8.636;2023-12-28T03:20:02;100659.61;;;6.11;83.62
25944;BME280;13742;49.306;8.636;2023-12-28T03:21:02;100663.79;;;6.11;83.59
25944;BME280;13742;49.306;8.636;2023-12-28T03:22:03;100664.34;;;6.12;83.18
25944;BME280;13742;49.306;8.636;2023-12-28T03:23:02;100662.96;;;6.13;83.14
25944;BME280;13742;49.306;8.636;2023-12-28T03:24:02;100663.92;;;6.14;82.94
25944;BME280;13742;49.306;8.636;2023-12-28T03:25:03;100666.39;;;6.16;82.89
25944;BME280;13742;49.306;8.636;2023-12-28T03:26:03;100665.66;;;6.17;83.13
25944;BME280;13742;49.306;8.636;2023-12-28T03:27:02;100663.95;;;6.17;83.26
25944;BME280;13742;49.306;8.636;2023-12-28T03:28:02;100666.97;;;6.17;83.22
25944;BME280;13742;49.306;8.636;2023-12-28T03:29:02;100659.69;;;6.18;83.42
25944;BME280;13742;49.306;8.636;2023-12-28T03:30:02;100664.81;;;6.24;83.26
25944;BME280;13742;49.306;8.636;2023-12-28T03:31:03;100662.19;;;6.24;83.41
25944;BME280;13742;49.306;8.636;2023-12-28T03:32:02;100661.06;;;6.23;83.55
25944;BME280;13742;49.306;8.636;2023-12-28T03:33:02;100663.61;;;6.26;83.45
25944;BME280;13742;49.306;8.636;2023-12-28T03:34:02;100663.50;;;6.30;82.57
25944;BME280;13742;49.306;8.636;2023-12-28T03:35:03;100663.05;;;6.27;83.01
25944;BME280;13742;49.306;8.636;2023-12-28T03:36:02;100663.13;;;6.28;83.44
25944;BME280;13742;49.306;8.636;2023-12-28T03:37:02;100661.49;;;6.28;83.90
25944;BME280;13742;49.306;8.636;2023-12-28T03:38:02;100666.46;;;6.29;84.05
25944;BME280;13742;49.306;8.636;2023-12-28T03:39:03;100662.66;;;6.28;84.23
25944;BME280;13742;49.306;8.636;2023-12-28T03:40:02;100669.84;;;6.30;84.09
25944;BME280;13742;49.306;8.636;2023-12-28T03:41:02;100664.66;;;6.32;83.37
25944;BME280;13742;49.306;8.636;2023-12-28T03:42:02;100662.83;;;6.35;83.17
25944;BME280;13742;49.306;8.636;2023-12-28T03:43:02;100664.38;;;6.36;83.22
25944;BME280;13742;49.306;8.636;2023-12-28T03:44:02;100663.03;;;6.37;83.30
25944;BME280;13742;49.306;8.636;2023-12-28T03:45:02;100661.98;;;6.38;83.22
25944;BME280;13742;49.306;8.636;2023-12-28T03:46:02;100662.92;;;6.42;82.90
25944;BME280;13742;49.306;8.636;2023-12-28T03:47:02;100657.77;;;6.43;82.67
25944;BME280;13742;49.306;8.636;2023-12-28T03:48:02;100649.09;;;6.46;82.50
25944;BME280;13742;49.306;8.636;2023-12-28T03:49:02;100651.80;;;6.51;81.90
25944;BME280;13742;49.306;8.636;2023-12-28T03:50:02;100647.02;;;6.56;81.39
25944;BME280;13742;49.306;8.636;2023-12-28T03:51:03;100645.24;;;6.58;81.30
25944;BME280;13742;49.306;8.636;2023-12-28T03:52:02;100645.21;;;6.62;81.03
25944;BME280;13742;49.306;8.636;2023-12-28T03:53:02;100645.38;;;6.65;80.76
25944;BME280;13742;49.306;8.636;2023-12-28T03:54:02;100646.57;;;6.67;80.79
25944;BME280;13742;49.306;8.636;2023-12-28T03:55:02;100656.86;;;6.70;80.90
25944;BME280;13742;49.306;8.636;2023-12-28T03:56:02;100656.36;;;6.70;81.10
25944;BME280;13742;49.306;8.636;2023-12-28T03:57:02;100649.06;;;6.72;81.07
25944;BME280;13742;49.306;8.636;2023-12-28T03:58:02;100645.88;;;6.75;81.18
25944;BME280;13742;49.306;8.636;2023-12-28T03:59:02;100643.12;;;6.79;80.89
25944;BME280;13742;49.306;8.636;2023-12-28T04:00:03;100648.23;;;6.86;80.40
25944;BME280;13742;49.306;8.636;2023-12-28T04:01:02;100649.41;;;6.89;80.32
25944;BME280;13742;49.306;8.636;2023-12-28T04:02:02;100645.88;;;6.91;80.35
25944;BME280;13742;49.306;8.636;2023-12-28T04:03:02;100650.83;;;6.98;80.09
25944;BME280;13742;49.306;8.636;2023-12-28T04:04:02;100657.62;;;7.00;80.02
25944;BME280;13742;49.306;8.636;2023-12-28T04:05:03;100653.25;;;7.01;79.93
25944;BME280;13742;49.306;8.636;2023-12-28T04:06:02;100656.22;;;7.04;79.95
25944;BME280;13742;49.306;8.636;2023-12-28T04:07:02;100655.08;;;7.05;79.95
25944;BME280;13742;49.306;8.636;2023-12-28T04:08:02;100653.30;;;7.06;80.12
25944;BME280;13742;49.306;8.636;2023-12-28T04:09:02;100644.50;;;7.07;80.07
25944;BME280;13742;49.306;8.636;2023-12-28T04:10:02;100644.84;;;7.10;80.05
25944;BME280;13742;49.306;8.636;2023-12-28T04:11:02;100647.50;;;7.12;80.15
25944;BME280;13742;49.306;8.636;2023-12-28T04:12:02;100642.17;;;7.13;80.26
25944;BME280;13742;49.306;8.636;2023-12-28T04:13:02;100641.38;;;7.15;80.17
25944;BME280;13742;49.306;8.636;2023-12-28T04:14:02;100635.45;;;7.23;79.44
25944;BME280;13742;49.306;8.636;2023-12-28T04:15:02;100637.90;;;7.27;79.50
25944;BME280;13742;49.306;8.636;2023-12-28T04:16:02;100639.68;;;7.26;79.63
25944;BME280;13742;49.306;8.636;2023-12-28T04:17:02;100642.45;;;7.31;79.72
25944;BME280;13742;49.306;8.636;2023-12-28T04:18:02;100640.86;;;7.33;80.09
25944;BME280;13742;49.306;8.636;2023-12-28T04:19:02;100642.77;;;7.36;80.36
25944;BME280;13742;49.306;8.636;2023-12-28T04:20:03;100645.33;;;7.37;80.63
25944;BME280;13742;49.306;8.636;2023-12-28T04:21:02;100647.62;;;7.45;80.85
25944;BME280;13742;49.306;8.636;2023-12-28T04:22:02;100648.38;;;7.46;81.20
25944;BME280;13742;49.306;8.636;2023-12-28T04:23:02;100652.52;;;7.49;81.72
25944;BME280;13742;49.306;8.636;2023-12-28T04:24:02;100655.47;;;7.51;82.01
25944;BME280;13742;49.306;8.636;2023-12-28T04:25:02;100655.13;;;7.60;82.18
25944;BME280;13742;49.306;8.636;2023-12-28T04:26:03;100655.56;;;7.61;82.18
25944;BME280;13742;49.306;8.636;2023-12-28T04:27:02;100654.83;;;7.62;82.45
25944;BME280;13742;49.306;8.636;2023-12-28T04:28:02;100664.93;;;7.68;82.78
25944;BME280;13742;49.306;8.636;2023-12-28T04:29:02;100667.31;;;7.76;82.98
25944;BME280;13742;49.306;8.636;2023-12-28T04:30:02;100664.02;;;7.78;82.77
25944;BME280;13742;49.306;8.636;2023-12-28T04:31:05;100670.36;;;7.82;82.61
25944;BME280;13742;49.306;8.636;2023-12-28T04:32:02;100669.33;;;7.85;82.52
25944;BME280;13742;49.306;8.636;2023-12-28T04:33:02;100667.55;;;7.88;82.02
25944;BME280;13742;49.306;8.636;2023-12-28T04:34:02;100668.54;;;7.91;82.07
25944;BME280;13742;49.306;8.636;2023-12-28T04:35:03;100677.18;;;7.96;81.77
25944;BME280;13742;49.306;8.636;2023-12-28T04:36:05;100667.94;;;7.98;81.83
25944;BME280;13742;49.306;8.636;2023-12-28T04:37:02;100666.20;;;8.00;81.42
25944;BME280;13742;49.306;8.636;2023-12-28T04:38:02;100662.85;;;8.04;81.37
25944;BME280;13742;49.306;8.636;2023-12-28T04:39:02;100661.77;;;8.07;81.11
25944;BME280;13742;49.306;8.636;2023-12-28T04:40:04;100660.69;;;8.14;80.69
25944;BME280;13742;49.306;8.636;2023-12-28T04:41:02;100656.28;;;8.15;80.59
25944;BME280;13742;49.306;8.636;2023-12-28T04:42:03;100657.91;;;8.13;80.66
25944;BME280;13742;49.306;8.636;2023-12-28T04:43:03;100666.34;;;8.15;80.73
25944;BME280;13742;49.306;8.636;2023-12-28T04:44:02;100668.66;;;8.21;80.34
25944;BME280;13742;49.306;8.636;2023-12-28T04:45:02;100674.55;;;8.23;80.28
25944;BME280;13742;49.306;8.636;2023-12-28T04:46:03;100674.61;;;8.26;80.49
25944;BME280;13742;49.306;8.636;2023-12-28T04:47:02;100675.57;;;8.33;80.10
25944;BME280;13742;49.306;8.636;2023-12-28T04:48:02;100684.71;;;8.33;80.31
25944;BME280;13742;49.306;8.636;2023-12-28T04:49:02;100694.32;;;8.38;80.27
25944;BME280;13742;49.306;8.636;2023-12-28T04:50:03;100702.09;;;8.43;80.40
25944;BME280;13742;49.306;8.636;2023-12-28T04:51:02;100700.58;;;8.50;80.20
25944;BME280;13742;49.306;8.636;2023-12-28T04:52:02;100697.42;;;8.55;80.30
25944;BME280;13742;49.306;8.636;2023-12-28T04:53:02;100701.95;;;8.58;80.33
25944;BME280;13742;49.306;8.636;2023-12-28T04:54:02;100703.38;;;8.61;80.88
25944;BME280;13742;49.306;8.636;2023-12-28T04:55:02;100710.17;;;8.60;81.58
25944;BME280;13742;49.306;8.636;2023-12-28T04:56:02;100707.55;;;8.59;82.50
25944;BME280;13742;49.306;8.636;2023-12-28T04:57:02;100702.60;;;8.61;83.69
25944;BME280;13742;49.306;8.636;2023-12-28T04:58:02;100698.83;;;8.62;85.02
25944;BME280;13742;49.306;8.636;2023-12-28T04:59:02;100698.53;;;8.62;86.57
25944;BME280;13742;49.306;8.636;2023-12-28T05:00:03;100708.03;;;8.60;87.34
25944;BME280;13742;49.306;8.636;2023-12-28T05:01:02;100713.33;;;8.58;88.83
25944;BME280;13742;49.306;8.636;2023-12-28T05:02:02;100713.20;;;8.56;89.68
25944;BME280;13742;49.306;8.636;2023-12-28T05:03:02;100714.10;;;8.55;90.35
25944;BME280;13742;49.306;8.636;2023-12-28T05:04:02;100711.20;;;8.53;91.21
25944;BME280;13742;49.306;8.636;2023-12-28T05:05:02;100706.52;;;8.50;91.30
25944;BME280;13742;49.306;8.636;2023-12-28T05:06:02;100710.94;;;8.48;91.45
25944;BME280;13742;49.306;8.636;2023-12-28T05:07:02;100710.92;;;8.46;92.14
25944;BME280;13742;49.306;8.636;2023-12-28T05:08:02;100710.97;;;8.43;92.45
25944;BME280;13742;49.306;8.636;2023-12-28T05:09:03;100710.06;;;8.41;92.99
25944;BME280;13742;49.306;8.636;2023-12-28T05:10:02;100710.74;;;8.40;93.12
25944;BME280;13742;49.306;8.636;2023-12-28T05:11:02;100704.26;;;8.38;93.99
25944;BME280;13742;49.306;8.636;2023-12-28T05:12:02;100704.76;;;8.37;93.93
25944;BME280;13742;49.306;8.636;2023-12-28T05:13:02;100697.61;;;8.35;94.20
25944;BME280;13742;49.306;8.636;2023-12-28T05:14:02;100704.52;;;8.35;94.56
25944;BME280;13742;49.306;8.636;2023-12-28T05:15:02;100713.31;;;8.34;94.44
25944;BME280;13742;49.306;8.636;2023-12-28T05:16:03;100712.88;;;8.31;94.38
25944;BME280;13742;49.306;8.636;2023-12-28T05:17:02;100719.14;;;8.31;94.19
25944;BME280;13742;49.306;8.636;2023-12-28T05:18:02;100716.06;;;8.29;93.71
25944;BME280;13742;49.306;8.636;2023-12-28T05:19:02;100718.27;;;8.28;93.44